createdAt,value
2019-05-12T00:01:58.751Z,102851.97
2019-05-12T00:04:28.773Z,102852.44
2019-05-12T00:06:58.677Z,102852.45
2019-05-12T00:09:28.542Z,102852.45
2019-05-12T00:11:59.113Z,102856.94
2019-05-12T00:14:28.866Z,102862.77
2019-05-12T00:16:58.379Z,102857.88
2019-05-12T00:19:28.516Z,102864.53
2019-05-12T00:21:58.798Z,102863.66
2019-05-12T00:24:28.420Z,102864.12
2019-05-12T00:27:00.753Z,102861.89
2019-05-12T00:29:30.317Z,102865.02
2019-05-12T00:31:59.873Z,102868.09
2019-05-12T00:34:29.409Z,102870.83
2019-05-12T00:36:59.051Z,102876.19
2019-05-12T00:39:28.671Z,102884.19
2019-05-12T00:41:58.796Z,102884.70
2019-05-12T00:44:28.595Z,102888.27
2019-05-12T00:46:58.159Z,102887.39
2019-05-12T00:49:28.911Z,102892.30
2019-05-12T00:51:58.860Z,102898.56
2019-05-12T00:54:28.660Z,102895.88
2019-05-12T00:56:58.707Z,102899.02
2019-05-12T00:59:28.582Z,102898.61
2019-05-12T01:01:58.753Z,102895.45
2019-05-12T01:04:29.167Z,102896.39
2019-05-12T01:06:58.922Z,102899.07
2019-05-12T01:09:28.590Z,102903.53
2019-05-12T01:11:58.894Z,102905.33
2019-05-12T01:14:28.546Z,102907.55
2019-05-12T01:16:58.078Z,102909.36
2019-05-12T01:19:28.880Z,102913.84
2019-05-12T01:21:58.782Z,102915.67
2019-05-12T01:24:28.517Z,102921.48
2019-05-12T01:26:58.415Z,102921.50
2019-05-12T01:29:28.251Z,102921.96
2019-05-12T01:32:04.368Z,102927.33
2019-05-12T01:34:33.906Z,102933.58
2019-05-12T01:37:21.498Z,102930.89
2019-05-12T01:39:51.250Z,102935.37
2019-05-12T01:42:20.789Z,102942.10
2019-05-12T01:44:50.338Z,102938.55
2019-05-12T01:47:19.899Z,102939.47
2019-05-12T01:49:49.463Z,102947.05
2019-05-12T01:52:19.155Z,102946.18
2019-05-12T01:54:48.686Z,102946.18
2019-05-12T01:57:18.822Z,102946.61
2019-05-12T01:59:48.595Z,102944.38
2019-05-12T02:02:18.450Z,102950.63
2019-05-12T02:05:08.513Z,102955.56
2019-05-12T02:07:43.787Z,102960.02
2019-05-12T02:10:13.771Z,102962.70
2019-05-12T02:12:43.319Z,102967.64
2019-05-12T02:15:13.112Z,102969.40
2019-05-12T02:17:42.654Z,102972.55
2019-05-12T02:20:12.211Z,102984.16
2019-05-12T02:22:41.766Z,102980.13
2019-05-12T02:25:11.840Z,102983.28
2019-05-12T02:27:41.420Z,102990.00
2019-05-12T02:30:10.989Z,102987.77
2019-05-12T02:32:48.628Z,102986.91
2019-05-12T02:35:11.841Z,102996.70
2019-05-12T02:37:45.008Z,103000.80
2019-05-12T02:40:15.117Z,103003.06
2019-05-12T02:42:46.247Z,103004.82
2019-05-12T02:45:15.683Z,103010.66
2019-05-12T02:47:45.899Z,103018.25
2019-05-12T02:50:24.592Z,103019.11
2019-05-12T02:52:54.607Z,103025.81
2019-05-12T02:55:25.737Z,103030.72
2019-05-12T02:57:55.261Z,103032.98
2019-05-12T03:00:24.833Z,103041.50
2019-05-12T03:02:54.831Z,103047.75
2019-05-12T03:05:24.975Z,103054.05
2019-05-12T03:07:55.324Z,103054.93
2019-05-12T03:10:25.504Z,103064.31
2019-05-12T03:12:55.079Z,103065.19
2019-05-12T03:15:25.188Z,103060.30
2019-05-12T03:17:54.946Z,103074.63
2019-05-12T03:20:24.858Z,103076.45
2019-05-12T03:22:55.537Z,103078.67
2019-05-12T03:25:29.943Z,103079.55
2019-05-12T03:27:56.638Z,103088.06
2019-05-12T03:30:28.994Z,103090.28
2019-05-12T03:32:58.570Z,103092.97
2019-05-12T03:35:35.109Z,103094.30
2019-05-12T03:37:59.623Z,103095.24
2019-05-12T03:40:29.147Z,103091.68
2019-05-12T03:42:58.696Z,103095.24
2019-05-12T03:45:28.811Z,103102.41
2019-05-12T03:47:58.375Z,103102.42
2019-05-12T03:50:28.214Z,103110.46
2019-05-12T03:52:58.174Z,103104.67
2019-05-12T03:55:36.016Z,103114.06
2019-05-12T03:58:00.043Z,103118.92
2019-05-12T04:00:29.571Z,103118.50
2019-05-12T04:02:59.029Z,103121.19
2019-05-12T04:05:28.613Z,103126.56
2019-05-12T04:07:58.418Z,103131.04
2019-05-12T04:10:27.959Z,103136.35
2019-05-12T04:12:57.584Z,103132.34
2019-05-12T04:15:27.487Z,103129.70
2019-05-12T04:17:57.053Z,103137.28
2019-05-12T04:20:26.607Z,103140.84
2019-05-12T04:22:56.148Z,103144.45
2019-05-12T04:25:25.712Z,103144.91
2019-05-12T04:27:55.646Z,103146.26
2019-05-12T04:30:25.392Z,103142.65
2019-05-12T04:32:55.487Z,103143.11
2019-05-12T04:35:25.568Z,103142.66
2019-05-12T04:37:55.681Z,103142.66
2019-05-12T04:40:25.324Z,103153.84
2019-05-12T04:42:55.223Z,103161.89
2019-05-12T04:45:25.789Z,103164.11
2019-05-12T04:47:55.446Z,103166.38
2019-05-12T04:50:25.346Z,103168.61
2019-05-12T04:52:55.079Z,103172.63
2019-05-12T04:55:25.814Z,103179.80
2019-05-12T04:57:55.464Z,103183.36
2019-05-12T05:00:25.840Z,103182.02
2019-05-12T05:02:55.650Z,103182.02
2019-05-12T05:05:25.187Z,103177.54
2019-05-12T05:07:55.022Z,103176.20
2019-05-12T05:10:25.075Z,103182.02
2019-05-12T05:12:55.114Z,103189.18
2019-05-12T05:15:25.103Z,103193.20
2019-05-12T05:17:54.815Z,103191.82
2019-05-12T05:20:24.373Z,103193.63
2019-05-12T05:22:54.275Z,103203.48
2019-05-12T05:25:23.934Z,103209.25
2019-05-12T05:27:53.482Z,103215.50
2019-05-12T05:30:24.312Z,103221.32
2019-05-12T05:32:54.422Z,103224.89
2019-05-12T05:35:28.853Z,103231.17
2019-05-12T05:37:55.496Z,103223.53
2019-05-12T05:40:30.152Z,103229.38
2019-05-12T05:42:56.370Z,103234.28
2019-05-12T05:45:26.599Z,103235.16
2019-05-12T05:47:59.685Z,103246.34
2019-05-12T05:50:29.507Z,103252.17
2019-05-12T05:52:58.774Z,103261.09
2019-05-12T05:55:28.581Z,103269.15
2019-05-12T05:57:59.752Z,103277.20
2019-05-12T06:00:29.723Z,103278.54
2019-05-12T06:02:59.378Z,103279.42
2019-05-12T06:05:31.055Z,103274.94
2019-05-12T06:08:00.831Z,103277.62
2019-05-12T06:10:36.247Z,103284.78
2019-05-12T06:13:04.150Z,103289.69
2019-05-12T06:15:35.801Z,103295.94
2019-05-12T06:18:05.035Z,103289.23
2019-05-12T06:20:37.938Z,103291.48
2019-05-12T06:23:06.000Z,103300.42
2019-05-12T06:25:46.347Z,103297.28
2019-05-12T06:28:08.954Z,103301.76
2019-05-12T06:30:44.268Z,103304.45
2019-05-12T06:33:09.332Z,103307.13
2019-05-12T06:35:42.276Z,103308.02
2019-05-12T06:38:10.178Z,103308.92
2019-05-12T06:40:41.053Z,103311.11
2019-05-12T06:43:10.971Z,103314.24
2019-05-12T06:45:43.295Z,103309.25
2019-05-12T06:48:14.000Z,103307.02
2019-05-12T06:50:44.265Z,103312.34
2019-05-12T06:53:14.138Z,103317.66
2019-05-12T06:55:44.290Z,103310.02
2019-05-12T06:58:14.133Z,103319.36
2019-05-12T07:00:43.942Z,103324.25
2019-05-12T07:03:14.340Z,103323.73
2019-05-12T07:05:45.254Z,103328.58
2019-05-12T07:08:17.871Z,103333.01
2019-05-12T07:10:51.674Z,103328.50
2019-05-12T07:13:22.989Z,103333.34
2019-05-12T07:15:48.930Z,103328.84
2019-05-12T07:18:25.952Z,103333.29
2019-05-12T07:20:50.923Z,103332.77
2019-05-12T07:23:26.008Z,103335.41
2019-05-12T07:25:54.827Z,103338.07
2019-05-12T07:28:23.797Z,103346.08
2019-05-12T07:30:54.524Z,103349.66
2019-05-12T07:33:24.201Z,103358.16
2019-05-12T07:36:01.314Z,103350.10
2019-05-12T07:38:27.428Z,103366.22
2019-05-12T07:41:00.796Z,103364.41
2019-05-12T07:43:29.406Z,103365.24
2019-05-12T07:46:02.312Z,103358.94
2019-05-12T07:48:33.239Z,103361.14
2019-05-12T07:51:04.025Z,103361.09
2019-05-12T07:53:33.896Z,103355.71
2019-05-12T07:56:04.097Z,103357.92
2019-05-12T07:58:33.867Z,103360.55
2019-05-12T08:01:07.183Z,103365.92
2019-05-12T08:03:34.783Z,103369.06
2019-05-12T08:06:04.730Z,103372.16
2019-05-12T08:08:34.453Z,103372.59
2019-05-12T08:11:04.604Z,103384.20
2019-05-12T08:13:37.858Z,103381.03
2019-05-12T08:16:05.732Z,103390.91
2019-05-12T08:18:40.036Z,103393.15
2019-05-12T08:21:06.919Z,103404.83
2019-05-12T08:23:38.098Z,103400.38
2019-05-12T08:26:12.258Z,103406.22
2019-05-12T08:28:40.340Z,103399.05
2019-05-12T08:31:10.253Z,103400.44
2019-05-12T08:33:39.990Z,103399.10
2019-05-12T08:36:11.696Z,103397.75
2019-05-12T08:38:41.107Z,103397.75
2019-05-12T08:41:10.647Z,103399.04
2019-05-12T08:43:40.608Z,103397.70
2019-05-12T08:46:12.869Z,103397.23
2019-05-12T08:48:44.640Z,103403.48
2019-05-12T08:51:17.533Z,103411.96
2019-05-12T08:54:07.798Z,103416.44
2019-05-12T08:56:34.802Z,103408.80
2019-05-12T08:59:04.633Z,103407.92
2019-05-12T09:01:35.634Z,103402.55
2019-05-12T09:04:11.172Z,103406.16
2019-05-12T09:06:36.429Z,103411.48
2019-05-12T09:09:07.561Z,103426.27
2019-05-12T09:11:37.144Z,103415.98
2019-05-12T09:14:07.254Z,103411.95
2019-05-12T09:16:36.842Z,103424.52
2019-05-12T09:19:10.059Z,103442.02
2019-05-12T09:21:37.872Z,103437.95
2019-05-12T09:24:07.444Z,103442.49
2019-05-12T09:26:37.059Z,103444.30
2019-05-12T09:29:07.509Z,103447.92
2019-05-12T09:31:37.297Z,103437.66
2019-05-12T09:34:11.543Z,103439.52
2019-05-12T09:36:38.159Z,103441.78
2019-05-12T09:39:08.241Z,103440.91
2019-05-12T09:41:42.362Z,103442.26
2019-05-12T09:44:09.228Z,103445.00
2019-05-12T09:46:38.827Z,103448.56
2019-05-12T09:49:08.455Z,103455.73
2019-05-12T09:51:42.892Z,103457.08
2019-05-12T09:54:09.415Z,103455.73
2019-05-12T09:56:41.190Z,103453.06
2019-05-12T09:59:19.102Z,103465.15
2019-05-12T10:01:45.748Z,103453.56
2019-05-12T10:04:16.354Z,103451.30
2019-05-12T10:06:44.560Z,103450.42
2019-05-12T10:09:15.617Z,103449.08
2019-05-12T10:11:45.467Z,103445.05
2019-05-12T10:14:15.091Z,103455.38
2019-05-12T10:16:49.574Z,103461.63
2019-05-12T10:19:16.241Z,103459.41
2019-05-12T10:21:49.049Z,103466.58
2019-05-12T10:24:17.452Z,103467.00
2019-05-12T10:26:49.559Z,103469.27
2019-05-12T10:29:20.801Z,103471.08
2019-05-12T10:31:49.634Z,103471.03
2019-05-12T10:34:24.078Z,103475.52
2019-05-12T10:36:53.962Z,103476.87
2019-05-12T10:39:24.383Z,103479.55
2019-05-12T10:41:54.795Z,103476.41
2019-05-12T10:44:29.902Z,103483.58
2019-05-12T10:46:57.968Z,103478.62
2019-05-12T10:49:27.556Z,103476.40
2019-05-12T10:51:57.095Z,103480.89
2019-05-12T10:54:26.699Z,103483.58
2019-05-12T10:56:56.244Z,103480.89
2019-05-12T10:59:32.255Z,103467.88
2019-05-12T11:01:57.162Z,103482.23
2019-05-12T11:04:35.783Z,103481.31
2019-05-12T11:06:58.833Z,103478.62
2019-05-12T11:09:31.593Z,103476.81
2019-05-12T11:11:59.727Z,103484.88
2019-05-12T11:14:30.528Z,103482.23
2019-05-12T11:17:07.392Z,103471.49
2019-05-12T11:19:33.730Z,103491.18
2019-05-12T11:22:03.774Z,103484.88
2019-05-12T11:24:33.807Z,103485.33
2019-05-12T11:27:04.109Z,103497.89
2019-05-12T11:29:45.704Z,103492.98
2019-05-12T11:32:05.696Z,103492.98
2019-05-12T11:34:35.236Z,103497.89
2019-05-12T11:37:04.840Z,103504.19
2019-05-12T11:39:38.803Z,103505.53
2019-05-12T11:42:06.083Z,103496.12
2019-05-12T11:44:35.695Z,103491.64
2019-05-12T11:47:05.583Z,103497.47
2019-05-12T11:49:35.224Z,103494.33
2019-05-12T11:52:09.208Z,103507.75
2019-05-12T11:54:36.075Z,103492.09
2019-05-12T11:57:05.683Z,103509.56
2019-05-12T11:59:35.258Z,103514.92
2019-05-12T12:02:04.823Z,103510.90
2019-05-12T12:04:46.796Z,103517.16
2019-05-12T12:07:16.514Z,103527.90
2019-05-12T12:09:49.506Z,103526.12
2019-05-12T12:12:17.635Z,103525.17
2019-05-12T12:14:50.394Z,103534.56
2019-05-12T12:17:25.082Z,103528.36
2019-05-12T12:19:50.120Z,103527.90
2019-05-12T12:22:20.369Z,103530.16
2019-05-12T12:24:51.051Z,103530.59
2019-05-12T12:27:20.630Z,103533.73
2019-05-12T12:29:50.173Z,103538.64
2019-05-12T12:32:20.407Z,103539.98
2019-05-12T12:34:50.130Z,103535.95
2019-05-12T12:37:24.002Z,103539.98
2019-05-12T12:39:51.004Z,103540.45
2019-05-12T12:42:20.996Z,103546.73
2019-05-12T12:44:53.528Z,103551.19
2019-05-12T12:47:23.747Z,103545.86
2019-05-12T12:49:53.171Z,103544.52
2019-05-12T12:52:24.415Z,103548.97
2019-05-12T12:54:54.383Z,103558.37
2019-05-12T12:57:24.207Z,103555.26
2019-05-12T12:59:53.843Z,103555.22
2019-05-12T13:02:24.725Z,103556.10
2019-05-12T13:04:55.041Z,103552.57
2019-05-12T13:07:24.637Z,103561.52
2019-05-12T13:10:03.612Z,103561.52
2019-05-12T13:12:25.693Z,103564.16
2019-05-12T13:14:55.529Z,103563.73
2019-05-12T13:17:27.120Z,103564.16
2019-05-12T13:19:58.839Z,103573.55
2019-05-12T13:22:29.688Z,103575.78
2019-05-12T13:25:04.335Z,103570.45
2019-05-12T13:27:34.078Z,103574.48
2019-05-12T13:30:05.250Z,103581.62
2019-05-12T13:32:37.889Z,103566.84
2019-05-12T13:35:09.775Z,103572.20
2019-05-12T13:37:36.598Z,103589.20
2019-05-12T13:40:06.241Z,103595.00
2019-05-12T13:42:37.435Z,103592.31
2019-05-12T13:45:07.226Z,103592.78
2019-05-12T13:47:39.862Z,103598.61
2019-05-12T13:50:13.391Z,103590.09
2019-05-12T13:52:39.821Z,103602.17
2019-05-12T13:55:09.384Z,103604.86
2019-05-12T13:57:46.595Z,103603.98
2019-05-12T14:00:11.068Z,103608.43
2019-05-12T14:02:41.168Z,103614.27
2019-05-12T14:05:14.113Z,103616.95
2019-05-12T14:07:43.706Z,103622.78
2019-05-12T14:10:14.163Z,103616.95
2019-05-12T14:12:44.147Z,103619.63
2019-05-12T14:15:14.340Z,103627.23
2019-05-12T14:17:44.269Z,103636.17
2019-05-12T14:20:19.727Z,103636.17
2019-05-12T14:22:45.178Z,103626.77
2019-05-12T14:25:15.375Z,103625.42
2019-05-12T14:27:46.143Z,103625.42
2019-05-12T14:30:15.698Z,103624.50
2019-05-12T14:32:49.288Z,103631.22
2019-05-12T14:35:16.970Z,103637.02
2019-05-12T14:37:47.576Z,103634.78
2019-05-12T14:40:21.197Z,103642.84
2019-05-12T14:42:48.890Z,103634.78
2019-05-12T14:45:19.515Z,103641.92
2019-05-12T14:47:50.117Z,103638.31
2019-05-12T14:50:20.075Z,103641.88
2019-05-12T14:52:50.276Z,103633.82
2019-05-12T14:55:21.425Z,103628.87
2019-05-12T14:57:50.992Z,103640.03
2019-05-12T15:00:23.607Z,103616.31
2019-05-12T15:02:53.973Z,103629.75
2019-05-12T15:05:27.443Z,103631.55
2019-05-12T15:07:59.899Z,103635.12
2019-05-12T15:10:26.915Z,103634.70
2019-05-12T15:12:56.683Z,103633.78
2019-05-12T15:15:26.591Z,103628.87
2019-05-12T15:18:03.101Z,103630.67
2019-05-12T15:20:28.038Z,103645.86
2019-05-12T15:22:57.912Z,103657.50
2019-05-12T15:25:29.533Z,103649.85
2019-05-12T15:27:58.878Z,103644.06
2019-05-12T15:30:28.851Z,103651.66
2019-05-12T15:32:58.498Z,103653.46
2019-05-12T15:35:28.108Z,103650.73
2019-05-12T15:37:57.800Z,103653.88
2019-05-12T15:40:27.420Z,103661.95
2019-05-12T15:43:00.427Z,103656.99
2019-05-12T15:45:28.305Z,103655.14
2019-05-12T15:47:57.907Z,103660.98
2019-05-12T15:50:27.483Z,103653.80
2019-05-12T15:52:57.032Z,103643.97
2019-05-12T15:55:32.791Z,103660.98
2019-05-12T15:57:57.886Z,103668.58
2019-05-12T16:00:27.458Z,103652.88
2019-05-12T16:02:57.050Z,103663.20
2019-05-12T16:05:31.010Z,103663.20
2019-05-12T16:07:58.929Z,103669.00
2019-05-12T16:10:28.496Z,103675.30
2019-05-12T16:12:58.060Z,103659.17
2019-05-12T16:15:49.389Z,103680.20
2019-05-12T16:18:35.047Z,103669.88
2019-05-12T16:21:09.208Z,103677.48
2019-05-12T16:23:36.017Z,103683.77
2019-05-12T16:26:08.098Z,103684.19
2019-05-12T16:28:36.962Z,103675.20
2019-05-12T16:31:08.714Z,103673.39
2019-05-12T16:33:37.919Z,103687.67
2019-05-12T16:36:11.538Z,103685.91
2019-05-12T16:38:38.886Z,103690.78
2019-05-12T16:41:09.092Z,103694.81
2019-05-12T16:43:38.905Z,103699.31
2019-05-12T16:46:08.550Z,103687.22
2019-05-12T16:48:42.093Z,103687.63
2019-05-12T16:51:09.515Z,103697.03
2019-05-12T16:53:39.083Z,103693.00
2019-05-12T16:56:08.747Z,103699.27
2019-05-12T16:58:38.339Z,103705.56
2019-05-12T17:01:08.486Z,103695.31
2019-05-12T17:03:38.144Z,103706.91
2019-05-12T17:06:07.745Z,103715.85
2019-05-12T17:08:37.341Z,103710.02
2019-05-12T17:11:23.037Z,103718.92
2019-05-12T17:13:38.826Z,103714.89
2019-05-12T17:16:08.436Z,103710.39
2019-05-12T17:18:38.031Z,103714.01
2019-05-12T17:21:08.156Z,103727.44
2019-05-12T17:23:38.372Z,103727.45
2019-05-12T17:26:07.952Z,103714.05
2019-05-12T17:28:37.503Z,103727.03
2019-05-12T17:31:07.104Z,103721.27
2019-05-12T17:33:39.285Z,103730.18
2019-05-12T17:36:14.444Z,103733.80
2019-05-12T17:38:39.629Z,103733.80
2019-05-12T17:41:09.180Z,103728.91
2019-05-12T17:43:45.108Z,103739.17
2019-05-12T17:46:13.506Z,103737.86
2019-05-12T17:48:42.814Z,103734.72
2019-05-12T17:51:13.725Z,103738.33
2019-05-12T17:53:43.520Z,103746.39
2019-05-12T17:56:13.902Z,103746.81
2019-05-12T17:58:46.991Z,103749.54
2019-05-12T18:01:15.281Z,103751.38
2019-05-12T18:03:50.480Z,103763.91
2019-05-12T18:06:20.312Z,103761.70
2019-05-12T18:08:47.724Z,103754.53
2019-05-12T18:11:17.428Z,103760.37
2019-05-12T18:13:46.999Z,103760.80
2019-05-12T18:16:21.950Z,103765.28
2019-05-12T18:18:48.248Z,103769.34
2019-05-12T18:21:21.720Z,103764.86
2019-05-12T18:23:49.110Z,103759.95
2019-05-12T18:26:36.656Z,103766.66
2019-05-12T18:29:06.355Z,103769.81
2019-05-12T18:31:36.207Z,103768.47
2019-05-12T18:34:05.801Z,103768.05
2019-05-12T18:36:35.631Z,103774.30
2019-05-12T18:39:11.740Z,103773.88
2019-05-12T18:41:39.763Z,103775.64
2019-05-12T18:44:09.335Z,103785.13
2019-05-12T18:46:44.868Z,103779.32
2019-05-12T18:49:12.819Z,103779.75
2019-05-12T18:51:43.517Z,103775.72
2019-05-12T18:54:15.019Z,103783.78
2019-05-12T18:56:44.073Z,103781.55
2019-05-12T18:59:16.433Z,103779.32
2019-05-12T19:01:45.156Z,103790.53
2019-05-12T19:04:14.706Z,103791.91
2019-05-12T19:06:44.773Z,103795.48
2019-05-12T19:09:14.601Z,103800.42
2019-05-12T19:11:46.671Z,103795.97
2019-05-12T19:14:15.416Z,103798.66
2019-05-12T19:16:45.107Z,103808.95
2019-05-12T19:19:19.865Z,103813.00
2019-05-12T19:21:47.027Z,103810.31
2019-05-12T19:24:20.152Z,103809.86
2019-05-12T19:26:49.402Z,103809.00
2019-05-12T19:29:20.929Z,103810.80
2019-05-12T19:31:52.307Z,103802.72
2019-05-12T19:34:25.275Z,103809.00
2019-05-12T19:36:53.213Z,103810.34
2019-05-12T19:39:25.153Z,103811.23
2019-05-12T19:41:54.548Z,103824.66
2019-05-12T19:44:26.436Z,103816.60
2019-05-12T19:46:55.456Z,103826.89
2019-05-12T19:49:26.252Z,103821.52
2019-05-12T19:51:56.432Z,103816.18
2019-05-12T19:54:30.218Z,103820.17
2019-05-12T19:56:57.279Z,103823.75
2019-05-12T19:59:26.849Z,103823.75
2019-05-12T20:01:56.570Z,103831.38
2019-05-12T20:04:33.505Z,103834.48
2019-05-12T20:06:58.580Z,103837.63
2019-05-12T20:09:28.179Z,103838.09
2019-05-12T20:12:01.194Z,103830.92
2019-05-12T20:14:29.048Z,103835.84
2019-05-12T20:16:58.655Z,103841.21
2019-05-12T20:19:28.343Z,103840.75
2019-05-12T20:21:57.922Z,103832.69
2019-05-12T20:24:27.578Z,103838.06
2019-05-12T20:26:57.197Z,103836.30
2019-05-12T20:29:33.153Z,103839.44
2019-05-12T20:31:58.338Z,103837.63
2019-05-12T20:34:28.213Z,103838.55
2019-05-12T20:36:59.029Z,103844.84
2019-05-12T20:39:29.049Z,103842.61
2019-05-12T20:42:00.664Z,103843.50
2019-05-12T20:44:29.866Z,103847.53
2019-05-12T20:47:01.568Z,103843.49
2019-05-12T20:49:30.663Z,103851.09
2019-05-12T20:52:03.932Z,103854.70
2019-05-12T20:54:33.531Z,103849.33
2019-05-12T20:57:07.800Z,103861.41
2019-05-12T20:59:34.447Z,103857.37
2019-05-12T21:02:03.994Z,103864.09
2019-05-12T21:04:37.743Z,103867.70
2019-05-12T21:07:05.134Z,103868.58
2019-05-12T21:09:35.008Z,103870.37
2019-05-12T21:12:04.634Z,103873.07
2019-05-12T21:14:34.276Z,103876.21
2019-05-12T21:17:09.361Z,103877.09
2019-05-12T21:19:38.711Z,103876.64
2019-05-12T21:22:06.412Z,103877.09
2019-05-12T21:24:39.355Z,103875.75
2019-05-12T21:27:09.406Z,103880.66
2019-05-12T21:29:38.889Z,103886.95
2019-05-12T21:32:13.927Z,103883.81
2019-05-12T21:34:39.831Z,103881.13
2019-05-12T21:37:09.398Z,103877.09
2019-05-12T21:39:40.637Z,103877.09
2019-05-12T21:42:10.359Z,103878.44
2019-05-12T21:44:41.316Z,103886.49
2019-05-12T21:47:11.265Z,103886.95
2019-05-12T21:49:42.617Z,103885.61
2019-05-12T21:52:13.605Z,103888.72
2019-05-12T21:54:43.903Z,103886.49
2019-05-12T21:57:13.680Z,103886.06
2019-05-12T21:59:43.290Z,103882.03
2019-05-12T22:02:14.675Z,103883.84
2019-05-12T22:04:45.716Z,103884.72
2019-05-12T22:07:15.787Z,103884.27
2019-05-12T22:09:47.082Z,103889.63
2019-05-12T22:12:16.708Z,103891.44
2019-05-12T22:14:46.588Z,103889.20
2019-05-12T22:17:16.240Z,103889.66
2019-05-12T22:19:45.810Z,103891.00
2019-05-12T22:22:19.553Z,103893.69
2019-05-12T22:24:46.617Z,103890.11
2019-05-12T22:27:25.888Z,103895.91
2019-05-12T22:29:47.516Z,103898.63
2019-05-12T22:32:19.191Z,103891.91
2019-05-12T22:34:48.627Z,103898.63
2019-05-12T22:37:18.710Z,103903.11
2019-05-12T22:39:48.781Z,103901.31
2019-05-12T22:42:21.625Z,103906.22
2019-05-12T22:44:55.298Z,103901.77
2019-05-12T22:47:23.987Z,103904.00
2019-05-12T22:49:57.019Z,103903.11
2019-05-12T22:52:24.802Z,103902.22
2019-05-12T22:54:54.758Z,103904.45
2019-05-12T22:57:24.397Z,103902.22
2019-05-12T22:59:55.577Z,103906.70
2019-05-12T23:02:29.862Z,103911.63
2019-05-12T23:04:56.435Z,103910.31
2019-05-12T23:07:29.692Z,103915.22
2019-05-12T23:10:00.655Z,103911.19
2019-05-12T23:12:29.354Z,103910.73
2019-05-12T23:15:17.006Z,103915.67
2019-05-12T23:17:49.361Z,103917.02
2019-05-12T23:20:18.202Z,103921.05
2019-05-12T23:22:47.758Z,103922.38
2019-05-12T23:25:21.364Z,103928.67
2019-05-12T23:27:48.596Z,103931.78
2019-05-12T23:30:18.233Z,103930.02
2019-05-12T23:32:51.542Z,103930.02
2019-05-12T23:35:19.282Z,103929.55
2019-05-12T23:37:48.831Z,103931.36
2019-05-12T23:40:18.431Z,103927.75
2019-05-12T23:42:47.972Z,103933.15
2019-05-12T23:45:17.615Z,103930.47
2019-05-12T23:47:47.545Z,103928.63
2019-05-12T23:50:17.101Z,103930.85
2019-05-12T23:52:46.653Z,103933.53
2019-05-12T23:55:16.559Z,103931.34
2019-05-12T23:57:46.103Z,103932.66
